Time;durP1;ratioP1;P1;durP2;ratioP2;P2;SDS_P1;SDS_P2;PMS_P1;PMS_P2;Temp;Humidity;BMP_temperature;BMP_pressure;BME280_temperature;BME280_humidity;BME280_pressure;Samples;Min_cycle;Max_cycle;Signal;HPM_P1;HPM_P2
2024/01/31 00:41:56;;;;;;;4.15;0.60;;;;;;;4.38;100.00;101767.50;4906604;29;20431;-95
2024/01/31 00:59:10;;;;;;;2.15;0.40;;;;;;;4.79;100.00;101756.88;4832556;29;20169;-93
2024/01/31 01:01:57;;;;;;;4.00;0.70;;;;;;;4.86;100.00;101752.16;4825866;29;20608;-93
2024/01/31 01:05:03;;;;;;;0.82;0.40;;;;;;;4.93;100.00;101740.47;4798181;29;20042;-95
2024/01/31 01:07:38;;;;;;;3.88;0.60;;;;;;;4.96;100.00;101732.44;4804879;29;20038;-95
2024/01/31 01:23:32;;;;;;;1.23;0.50;;;;;;;5.08;100.00;101694.28;4893179;29;20071;-94
2024/01/31 01:27:29;;;;;;;3.33;0.47;;;;;;;5.13;100.00;101701.91;4954465;28;20182;-95
2024/01/31 01:44:53;;;;;;;4.00;0.40;;;;;;;5.18;100.00;101662.38;4656784;30;20061;-95
2024/01/31 01:52:45;;;;;;;0.63;0.40;;;;;;;5.17;100.00;101650.19;4686317;30;20140;-94
2024/01/31 01:58:51;;;;;;;2.38;0.30;;;;;;;5.28;100.00;101660.97;4809476;29;20038;-87
2024/01/31 02:01:25;;;;;;;4.93;0.50;;;;;;;5.27;100.00;101661.06;4787714;29;20045;-93
2024/01/31 02:08:19;;;;;;;2.00;0.30;;;;;;;5.40;100.00;101649.00;4972464;28;20078;-92
2024/01/31 02:14:25;;;;;;;1.67;0.40;;;;;;;5.34;100.00;101629.19;4906358;28;20050;-94
2024/01/31 02:16:51;;;;;;;1.13;0.43;;;;;;;5.34;100.00;101631.81;4928023;28;20397;-87
2024/01/31 02:19:16;;;;;;;2.78;0.35;;;;;;;5.34;100.00;101625.72;4941235;28;20031;-86
2024/01/31 02:21:46;;;;;;;7.03;0.90;;;;;;;5.35;100.00;101627.44;4945911;28;20049;-87
2024/01/31 02:24:11;;;;;;;2.60;0.40;;;;;;;5.38;100.00;101629.91;4980401;28;20091;-88
2024/01/31 02:26:38;;;;;;;2.85;0.63;;;;;;;5.41;100.00;101613.16;4955130;28;20030;-89
2024/01/31 02:29:04;;;;;;;8.50;0.65;;;;;;;5.42;100.00;101614.81;4960909;28;20484;-85
2024/01/31 02:31:32;;;;;;;2.67;0.45;;;;;;;5.43;100.00;101617.38;4947647;28;20523;-87
2024/01/31 02:33:58;;;;;;;4.50;0.47;;;;;;;5.47;100.00;101610.19;4953169;28;20543;-85
2024/01/31 02:36:30;;;;;;;5.55;0.93;;;;;;;5.49;100.00;101615.34;4945466;28;20054;-87
2024/01/31 02:39:03;;;;;;;5.18;0.60;;;;;;;5.51;100.00;101622.19;4960250;28;20097;-87
2024/01/31 02:41:29;;;;;;;3.50;0.40;;;;;;;5.58;100.00;101631.44;4940022;28;20511;-86
2024/01/31 02:43:57;;;;;;;2.45;0.40;;;;;;;5.64;100.00;101616.31;4934916;28;20030;-88
2024/01/31 02:46:23;;;;;;;2.47;0.60;;;;;;;5.64;100.00;101608.44;4953901;28;20121;-87
2024/01/31 02:48:49;;;;;;;2.83;0.40;;;;;;;5.66;100.00;101593.47;4974171;28;20062;-87
2024/01/31 02:51:15;;;;;;;5.93;0.63;;;;;;;5.68;100.00;101602.97;4957361;28;20382;-84
2024/01/31 02:53:40;;;;;;;2.05;0.50;;;;;;;5.71;100.00;101602.78;4940803;28;20493;-87
2024/01/31 02:56:09;;;;;;;2.58;0.17;;;;;;;5.79;100.00;101601.50;4953177;28;20473;-86
2024/01/31 02:58:36;;;;;;;2.70;0.40;;;;;;;5.76;100.00;101599.06;4936698;28;20158;-88
2024/01/31 03:01:08;;;;;;;1.75;0.22;;;;;;;5.78;100.00;101592.78;4957196;28;20097;-88
2024/01/31 03:03:34;;;;;;;3.30;0.30;;;;;;;5.74;100.00;101579.91;4945522;28;20043;-89
2024/01/31 03:06:01;;;;;;;5.20;0.28;;;;;;;5.82;100.00;101589.06;4926749;28;20617;-88
2024/01/31 03:08:27;;;;;;;4.82;0.50;;;;;;;5.77;100.00;101579.75;4958692;28;20031;-88
2024/01/31 03:10:53;;;;;;;5.57;0.85;;;;;;;5.80;100.00;101579.56;4944475;28;20043;-85
2024/01/31 03:13:18;;;;;;;4.57;0.50;;;;;;;5.83;100.00;101572.38;4932657;28;20090;-83
2024/01/31 03:15:44;;;;;;;1.90;0.50;;;;;;;5.82;100.00;101577.72;4960862;28;20054;-84
2024/01/31 03:18:10;;;;;;;2.90;0.35;;;;;;;5.82;100.00;101556.72;4973692;28;20049;-84
2024/01/31 03:20:39;;;;;;;3.35;0.50;;;;;;;5.86;100.00;101554.78;4933273;28;20171;-84
2024/01/31 03:23:05;;;;;;;2.20;0.47;;;;;;;5.86;100.00;101534.63;4964319;28;20079;-83
2024/01/31 03:25:31;;;;;;;2.40;0.45;;;;;;;5.80;100.00;101511.38;4951158;28;20054;-85
2024/01/31 03:27:57;;;;;;;4.05;0.38;;;;;;;5.82;100.00;101515.59;4939034;28;20050;-86
2024/01/31 03:30:28;;;;;;;3.70;0.80;;;;;;;5.80;100.00;101506.13;4944290;28;20031;-84
2024/01/31 03:32:54;;;;;;;4.13;0.40;;;;;;;5.78;100.00;101493.09;4951707;28;20125;-82
2024/01/31 03:35:20;;;;;;;5.55;0.50;;;;;;;5.80;100.00;101483.34;4920344;28;20482;-84
2024/01/31 03:37:46;;;;;;;2.25;0.40;;;;;;;5.78;100.00;101485.22;4943386;28;20034;-84
2024/01/31 03:40:12;;;;;;;3.72;0.52;;;;;;;5.77;100.00;101485.31;4953815;28;20042;-84
2024/01/31 03:42:40;;;;;;;2.80;0.50;;;;;;;5.78;100.00;101477.34;4955691;28;20034;-80
2024/01/31 03:45:06;;;;;;;3.35;0.45;;;;;;;5.81;100.00;101494.72;4957455;28;20042;-86
2024/01/31 03:47:34;;;;;;;4.88;0.52;;;;;;;5.80;100.00;101485.97;4951324;28;20027;-85
2024/01/31 03:49:59;;;;;;;7.38;0.32;;;;;;;5.81;100.00;101469.28;4941316;28;20611;-83
2024/01/31 03:52:28;;;;;;;7.70;0.50;;;;;;;5.83;100.00;101466.59;4987204;28;20039;-85
2024/01/31 03:54:54;;;;;;;3.88;0.47;;;;;;;5.77;100.00;101465.16;4939537;28;20048;-86
2024/01/31 03:57:19;;;;;;;3.92;0.40;;;;;;;5.79;100.00;101471.19;4957452;28;20030;-84
2024/01/31 03:59:45;;;;;;;6.32;0.47;;;;;;;5.79;100.00;101462.47;4936905;28;20640;-85
2024/01/31 04:02:11;;;;;;;4.72;0.60;;;;;;;5.79;100.00;101465.94;4947614;28;20043;-85
2024/01/31 04:04:36;;;;;;;4.20;0.60;;;;;;;5.79;100.00;101458.06;4949915;28;20033;-84
2024/01/31 04:07:02;;;;;;;4.00;0.57;;;;;;;5.79;100.00;101437.06;4947513;28;20039;-81
2024/01/31 04:09:31;;;;;;;4.50;0.70;;;;;;;5.81;100.00;101444.84;4957733;28;20109;-83
2024/01/31 04:11:56;;;;;;;5.78;0.40;;;;;;;5.76;100.00;101444.25;4951553;28;20062;-84
2024/01/31 04:14:22;;;;;;;4.05;0.45;;;;;;;5.77;100.00;101452.06;4970260;28;20034;-84
2024/01/31 04:16:48;;;;;;;3.38;0.50;;;;;;;5.79;100.00;101446.72;4967590;28;20047;-84
2024/01/31 04:19:14;;;;;;;5.82;0.43;;;;;;;5.77;100.00;101438.94;4970126;28;20038;-85
2024/01/31 04:21:40;;;;;;;6.70;0.88;;;;;;;5.77;100.00;101449.44;4939522;28;20046;-83
2024/01/31 04:24:06;;;;;;;8.95;0.65;;;;;;;5.79;100.00;101444.94;4963576;28;20039;-85
2024/01/31 04:26:31;;;;;;;2.20;0.50;;;;;;;5.83;100.00;101448.22;4962386;28;20026;-84
2024/01/31 04:28:57;;;;;;;5.63;0.82;;;;;;;5.78;100.00;101431.91;4975035;28;20117;-85
2024/01/31 04:31:23;;;;;;;3.33;0.50;;;;;;;5.81;100.00;101434.38;4973253;28;20052;-85
2024/01/31 04:33:48;;;;;;;6.13;0.68;;;;;;;5.82;100.00;101426.41;4953322;28;20035;-83
2024/01/31 04:36:19;;;;;;;3.70;0.50;;;;;;;5.86;100.00;101432.28;4964136;28;20102;-86
2024/01/31 04:38:45;;;;;;;4.90;1.20;;;;;;;5.87;100.00;101426.13;4962449;28;20049;-84
2024/01/31 04:41:11;;;;;;;4.82;0.95;;;;;;;5.88;100.00;101419.09;4968383;28;20030;-84
2024/01/31 04:43:36;;;;;;;2.20;0.43;;;;;;;5.87;100.00;101406.91;4961005;28;20035;-83
2024/01/31 04:46:02;;;;;;;2.97;0.50;;;;;;;5.90;100.00;101409.34;4953919;28;20046;-83
2024/01/31 04:48:30;;;;;;;5.85;0.57;;;;;;;5.92;100.00;101423.25;4940992;28;20385;-85
2024/01/31 04:50:56;;;;;;;5.75;1.05;;;;;;;5.93;100.00;101436.28;4920477;28;20034;-83
2024/01/31 04:53:21;;;;;;;5.13;0.52;;;;;;;5.95;100.00;101429.16;4940740;28;20381;-85
2024/01/31 04:55:47;;;;;;;6.30;1.08;;;;;;;5.97;100.00;101429.06;4938287;28;20038;-84
2024/01/31 04:58:16;;;;;;;3.15;0.40;;;;;;;5.98;100.00;101408.91;4954663;28;20066;-87
2024/01/31 05:00:42;;;;;;;3.40;0.40;;;;;;;5.94;100.00;101400.38;4939237;28;20682;-86
2024/01/31 05:03:08;;;;;;;2.50;0.40;;;;;;;5.91;100.00;101393.53;4916907;28;20049;-87
2024/01/31 05:05:33;;;;;;;2.10;0.30;;;;;;;5.89;100.00;101390.13;4953559;28;20046;-85
2024/01/31 05:07:59;;;;;;;4.35;0.85;;;;;;;5.90;100.00;101381.34;4940669;28;20058;-84
2024/01/31 05:10:25;;;;;;;4.70;0.60;;;;;;;5.94;100.00;101372.34;4940865;28;20101;-86
2024/01/31 05:12:51;;;;;;;2.50;0.63;;;;;;;5.96;100.00;101377.50;4970072;28;20058;-86
2024/01/31 05:15:16;;;;;;;4.18;0.85;;;;;;;6.00;100.00;101381.66;4922138;28;20508;-85
2024/01/31 05:17:42;;;;;;;5.07;0.95;;;;;;;6.01;100.00;101382.47;4956655;28;20031;-83
2024/01/31 05:20:08;;;;;;;3.08;0.50;;;;;;;6.08;100.00;101391.72;4950819;28;20073;-86
2024/01/31 05:22:34;;;;;;;2.72;0.65;;;;;;;6.11;100.00;101383.66;4936299;28;20118;-86
2024/01/31 05:24:59;;;;;;;2.88;0.40;;;;;;;6.11;100.00;101374.94;4958272;28;20035;-85
2024/01/31 05:27:25;;;;;;;5.13;0.57;;;;;;;6.16;100.00;101378.97;4956757;28;20039;-84
2024/01/31 05:29:51;;;;;;;4.50;0.60;;;;;;;6.20;100.00;101356.84;4967225;28;20035;-83
2024/01/31 05:32:17;;;;;;;9.20;0.60;;;;;;;6.19;100.00;101346.44;4948351;28;20046;-85
2024/01/31 05:34:44;;;;;;;7.53;1.02;;;;;;;6.23;100.00;101352.38;4958427;28;20035;-81
2024/01/31 05:37:09;;;;;;;3.53;0.68;;;;;;;6.25;100.00;101356.56;4966328;28;20094;-84
2024/01/31 05:39:35;;;;;;;5.45;0.70;;;;;;;6.31;100.00;101355.34;4923622;28;20046;-84
2024/01/31 05:42:02;;;;;;;6.47;0.55;;;;;;;6.32;100.00;101342.13;4930663;28;20038;-85
2024/01/31 05:44:28;;;;;;;4.43;0.95;;;;;;;6.33;100.00;101335.09;4948720;28;20023;-85
2024/01/31 05:46:53;;;;;;;6.03;0.60;;;;;;;6.35;100.00;101320.09;4963888;28;20447;-84
2024/01/31 05:49:19;;;;;;;7.38;0.95;;;;;;;6.33;100.00;101314.94;4943817;28;20049;-86
2024/01/31 05:51:45;;;;;;;4.30;0.77;;;;;;;6.37;100.00;101304.25;4962868;28;20778;-85
2024/01/31 05:54:14;;;;;;;6.40;0.75;;;;;;;6.39;100.00;101297.09;4959536;28;20038;-83
2024/01/31 05:56:51;;;;;;;5.95;0.73;;;;;;;6.31;100.00;101284.44;4955182;28;20042;-82
2024/01/31 05:59:17;;;;;;;5.95;0.43;;;;;;;6.32;100.00;101281.72;4939219;28;20089;-86
2024/01/31 06:01:42;;;;;;;6.90;0.82;;;;;;;6.30;100.00;101246.88;4947442;28;20500;-86
2024/01/31 06:04:09;;;;;;;2.83;0.63;;;;;;;6.28;100.00;101242.63;4974432;28;20750;-86
2024/01/31 06:06:37;;;;;;;4.57;0.60;;;;;;;6.26;100.00;101247.16;4935661;28;20493;-85
2024/01/31 06:09:06;;;;;;;7.43;0.70;;;;;;;6.23;100.00;101250.81;4953124;28;20554;-86
2024/01/31 06:11:32;;;;;;;8.52;1.02;;;;;;;6.19;100.00;101251.94;4941569;28;20315;-87
2024/01/31 06:13:58;;;;;;;5.22;0.65;;;;;;;6.19;100.00;101249.31;4924244;28;20121;-86
2024/01/31 06:16:24;;;;;;;8.95;0.73;;;;;;;6.21;100.00;101250.06;4964243;28;20453;-84
2024/01/31 06:18:51;;;;;;;6.32;0.80;;;;;;;6.18;100.00;101232.72;4951198;28;20043;-82
2024/01/31 06:21:17;;;;;;;5.45;0.90;;;;;;;6.21;100.00;101252.69;4941440;28;20516;-85
2024/01/31 06:23:42;;;;;;;7.60;0.98;;;;;;;6.22;100.00;101241.25;4956768;28;20027;-84
2024/01/31 06:26:08;;;;;;;4.70;0.55;;;;;;;6.24;100.00;101249.88;4953746;28;20031;-84
2024/01/31 06:28:38;;;;;;;7.03;1.58;;;;;;;6.31;100.00;101256.41;4958333;28;20043;-86
2024/01/31 06:31:13;;;;;;;5.28;0.50;;;;;;;6.36;100.00;101255.28;4922869;28;20751;-86
2024/01/31 06:33:43;;;;;;;12.70;2.00;;;;;;;6.39;100.00;101244.59;4947029;28;20506;-86
2024/01/31 06:36:09;;;;;;;8.50;1.58;;;;;;;6.39;100.00;101245.44;4936221;28;20038;-83
2024/01/31 06:38:35;;;;;;;12.02;0.90;;;;;;;6.44;100.00;101227.59;4967769;28;20027;-86
2024/01/31 06:41:03;;;;;;;6.97;0.82;;;;;;;6.42;100.00;101213.72;4938582;28;20034;-84
2024/01/31 06:43:32;;;;;;;2.83;0.50;;;;;;;6.44;100.00;101226.75;4929771;28;20463;-85
2024/01/31 06:45:58;;;;;;;6.13;0.77;;;;;;;6.41;100.00;101232.22;4959584;28;20061;-85
2024/01/31 06:48:24;;;;;;;6.55;0.75;;;;;;;6.38;100.00;101220.13;4967834;28;20038;-83
2024/01/31 06:50:50;;;;;;;6.32;0.77;;;;;;;6.39;100.00;101228.81;4961635;28;20092;-85
2024/01/31 06:53:16;;;;;;;6.57;1.20;;;;;;;6.38;100.00;101237.66;4941819;28;20042;-85
2024/01/31 06:55:44;;;;;;;7.32;0.60;;;;;;;6.39;100.00;101232.31;4938122;28;20046;-86
2024/01/31 06:58:10;;;;;;;6.07;0.60;;;;;;;6.36;100.00;101229.88;4917349;28;20039;-84
2024/01/31 07:00:36;;;;;;;10.15;0.93;;;;;;;6.35;100.00;101235.22;4942256;28;20088;-85
2024/01/31 07:03:03;;;;;;;5.70;0.65;;;;;;;6.35;100.00;101219.47;4977270;28;20033;-85
2024/01/31 07:05:34;;;;;;;10.10;0.82;;;;;;;6.29;100.00;101202.34;4953580;28;20038;-88
2024/01/31 07:08:00;;;;;;;6.55;0.70;;;;;;;6.31;100.00;101203.06;4937299;28;20034;-87
2024/01/31 07:10:34;;;;;;;8.13;0.80;;;;;;;6.30;100.00;101183.00;4955089;28;20028;-85
2024/01/31 07:13:03;;;;;;;11.15;0.88;;;;;;;6.27;100.00;101168.31;4957538;28;20421;-86
2024/01/31 07:15:34;;;;;;;7.55;0.88;;;;;;;6.20;100.00;101164.38;4938322;28;20033;-84
2024/01/31 07:17:59;;;;;;;6.35;0.73;;;;;;;6.23;100.00;101193.03;4969465;28;20791;-86
2024/01/31 07:20:25;;;;;;;6.72;1.13;;;;;;;6.26;100.00;101199.91;4950342;28;20039;-87
2024/01/31 07:22:51;;;;;;;2.90;0.80;;;;;;;6.25;100.00;101195.56;4958860;28;20046;-86
2024/01/31 07:25:17;;;;;;;6.03;0.52;;;;;;;6.24;100.00;101201.78;4935813;28;20050;-86
2024/01/31 07:27:44;;;;;;;9.93;0.82;;;;;;;6.24;100.00;101205.25;4957068;28;20066;-85
2024/01/31 07:30:11;;;;;;;11.93;1.45;;;;;;;6.23;100.00;101194.84;4937972;28;20076;-84
2024/01/31 07:32:39;;;;;;;16.83;1.15;;;;;;;6.19;100.00;101189.78;4958698;28;20038;-85
2024/01/31 07:35:09;;;;;;;9.20;0.88;;;;;;;6.22;100.00;101182.63;4941137;28;20085;-88
2024/01/31 07:37:36;;;;;;;7.90;1.95;;;;;;;6.17;100.00;101190.81;4938510;28;20065;-85
2024/01/31 07:40:04;;;;;;;7.00;1.02;;;;;;;6.17;100.00;101193.44;4938180;28;20031;-86
2024/01/31 07:42:30;;;;;;;10.77;1.25;;;;;;;6.14;100.00;101186.59;4971477;28;20047;-84
2024/01/31 07:44:56;;;;;;;2.58;0.68;;;;;;;6.12;100.00;101177.97;4949878;28;20074;-83
2024/01/31 07:47:22;;;;;;;10.13;1.17;;;;;;;6.13;100.00;101170.97;4944716;28;20585;-85
2024/01/31 07:49:47;;;;;;;4.90;1.00;;;;;;;6.10;100.00;101169.34;4963287;28;20042;-86
2024/01/31 07:52:13;;;;;;;8.93;0.77;;;;;;;6.11;100.00;101170.19;4955216;28;20038;-84
2024/01/31 07:54:40;;;;;;;10.57;0.80;;;;;;;6.12;100.00;101167.47;4947500;28;20041;-87
2024/01/31 07:57:05;;;;;;;7.30;1.15;;;;;;;6.14;100.00;101156.88;4958741;28;20596;-84
2024/01/31 07:59:31;;;;;;;3.58;0.70;;;;;;;6.16;100.00;101157.63;4972732;28;20038;-87
2024/01/31 08:02:00;;;;;;;8.07;1.67;;;;;;;6.15;100.00;101150.69;4969246;28;20043;-86
2024/01/31 08:04:26;;;;;;;4.13;0.85;;;;;;;6.15;100.00;101148.06;4953866;28;20046;-88
2024/01/31 08:06:53;;;;;;;8.95;1.00;;;;;;;6.23;100.00;101156.28;4973521;28;20050;-83
2024/01/31 08:09:18;;;;;;;7.63;0.95;;;;;;;6.22;100.00;101162.50;4958540;28;20034;-87
2024/01/31 08:11:44;;;;;;;3.00;0.47;;;;;;;6.28;100.00;101167.34;4966715;28;20035;-84
2024/01/31 08:14:10;;;;;;;9.90;1.23;;;;;;;6.32;100.00;101175.88;4970918;28;20548;-86
2024/01/31 08:16:37;;;;;;;6.78;0.93;;;;;;;6.36;100.00;101181.75;4980724;28;20606;-84
2024/01/31 08:19:03;;;;;;;14.07;1.95;;;;;;;6.41;100.00;101193.66;4954304;28;20475;-86
2024/01/31 08:21:33;;;;;;;6.88;0.90;;;;;;;6.50;100.00;101194.03;4969554;28;20045;-82
2024/01/31 08:23:59;;;;;;;7.45;1.30;;;;;;;6.49;100.00;101190.53;4938771;28;20057;-87
2024/01/31 08:26:25;;;;;;;7.10;0.95;;;;;;;6.50;100.00;101171.22;4966176;28;20038;-86
2024/01/31 08:28:53;;;;;;;10.60;0.95;;;;;;;6.52;100.00;101145.69;4999202;28;20377;-86
2024/01/31 08:31:19;;;;;;;6.70;0.85;;;;;;;6.50;100.00;101121.31;4950379;28;20110;-86
2024/01/31 08:33:45;;;;;;;13.27;1.92;;;;;;;6.54;100.00;101114.94;4965924;28;20039;-86
2024/01/31 08:36:14;;;;;;;5.28;1.10;;;;;;;6.62;100.00;101109.16;4965479;28;20061;-87
2024/01/31 08:39:20;;;;;;;5.80;0.95;;;;;;;6.60;100.00;101095.28;4931819;28;20043;-88
2024/01/31 08:41:46;;;;;;;8.95;1.77;;;;;;;6.63;100.00;101097.69;4966590;28;20038;-87
2024/01/31 08:44:11;;;;;;;7.10;1.88;;;;;;;6.64;100.00;101081.00;4955330;28;20070;-86
2024/01/31 08:46:37;;;;;;;6.20;0.88;;;;;;;6.66;100.00;101086.13;4969190;28;20047;-87
2024/01/31 08:49:03;;;;;;;10.02;1.00;;;;;;;6.67;100.00;101082.59;4962111;28;20027;-89
2024/01/31 08:51:30;;;;;;;11.65;1.90;;;;;;;6.68;100.00;101103.50;4956254;28;20031;-88
2024/01/31 08:53:56;;;;;;;12.32;1.83;;;;;;;6.70;100.00;101117.34;4946684;28;20033;-86
2024/01/31 08:56:25;;;;;;;8.30;1.30;;;;;;;6.77;100.00;101122.22;4939839;28;20031;-85
2024/01/31 08:58:59;;;;;;;11.30;1.75;;;;;;;6.81;100.00;101124.53;4969143;28;20045;-84
2024/01/31 09:05:34;;;;;;;14.38;1.77;;;;;;;6.86;100.00;101142.63;4945917;28;20048;-84
2024/01/31 09:08:00;;;;;;;10.10;1.85;;;;;;;6.88;100.00;101153.84;4959453;28;20039;-87
2024/01/31 09:10:26;;;;;;;8.35;1.65;;;;;;;6.93;100.00;101148.28;4945348;28;20033;-86
2024/01/31 09:12:53;;;;;;;13.43;2.22;;;;;;;6.98;100.00;101138.31;4959608;28;20465;-86
2024/01/31 09:15:19;;;;;;;10.75;1.40;;;;;;;6.99;100.00;101136.53;4950029;28;20035;-86
2024/01/31 09:17:46;;;;;;;11.93;1.38;;;;;;;7.02;100.00;101129.31;4961168;28;20379;-86
2024/01/31 09:20:12;;;;;;;11.30;1.38;;;;;;;7.05;100.00;101110.69;4967421;28;20486;-84
2024/01/31 09:22:38;;;;;;;8.43;0.80;;;;;;;7.07;100.00;101107.97;4958796;28;20038;-87
2024/01/31 09:25:05;;;;;;;14.40;5.57;;;;;;;7.11;100.00;101106.78;4955167;28;20035;-86
2024/01/31 09:27:31;;;;;;;14.75;4.93;;;;;;;7.18;100.00;101112.47;4944397;28;20031;-88
2024/01/31 09:29:56;;;;;;;12.63;2.97;;;;;;;7.20;100.00;101105.31;4945714;28;20046;-88
2024/01/31 09:32:22;;;;;;;40.05;21.05;;;;;;;7.27;100.00;101113.63;4974164;28;20049;-85
2024/01/31 09:34:48;;;;;;;22.70;10.70;;;;;;;7.35;100.00;101119.19;4972944;28;20027;-84
2024/01/31 09:37:14;;;;;;;27.17;13.27;;;;;;;7.42;100.00;101111.72;4936140;28;20035;-84
2024/01/31 09:39:39;;;;;;;11.80;4.07;;;;;;;7.48;100.00;101107.81;4945175;28;20035;-86
2024/01/31 09:42:06;;;;;;;23.13;8.63;;;;;;;7.59;100.00;101112.31;4926046;28;20035;-85
2024/01/31 09:44:35;;;;;;;17.10;6.07;;;;;;;7.61;100.00;101087.59;4956941;28;20470;-86
2024/01/31 09:47:02;;;;;;;16.48;3.92;;;;;;;7.65;100.00;101086.41;4943903;28;20078;-87
2024/01/31 09:49:28;;;;;;;15.20;5.90;;;;;;;7.74;100.00;101069.13;4942739;28;20174;-86
2024/01/31 09:52:01;;;;;;;8.50;3.28;;;;;;;7.87;100.00;101073.53;4957474;28;20341;-84
2024/01/31 09:54:27;;;;;;;22.10;6.50;;;;;;;7.94;100.00;101051.91;4958174;28;20034;-87
2024/01/31 09:56:55;;;;;;;12.15;4.60;;;;;;;8.03;100.00;101057.44;4955975;28;20034;-86
2024/01/31 09:59:21;;;;;;;14.18;4.78;;;;;;;8.04;100.00;101046.78;4969541;28;20041;-86
2024/01/31 10:01:52;;;;;;;9.40;3.15;;;;;;;8.10;100.00;101042.88;4968309;28;20049;-83
2024/01/31 10:04:18;;;;;;;11.65;2.30;;;;;;;8.09;100.00;101058.78;4954747;28;20059;-86
2024/01/31 10:06:44;;;;;;;12.90;1.83;;;;;;;8.12;100.00;101038.31;4936446;28;20043;-84
2024/01/31 10:09:10;;;;;;;10.60;1.73;;;;;;;8.14;100.00;101039.06;4932825;28;20027;-85
2024/01/31 10:11:36;;;;;;;14.60;1.70;;;;;;;8.21;100.00;101034.19;4955933;28;20054;-84
2024/01/31 10:14:02;;;;;;;10.25;1.60;;;;;;;8.23;100.00;101016.47;4935861;29;20035;-86
2024/01/31 10:16:28;;;;;;;6.97;1.50;;;;;;;8.28;100.00;101018.78;4947624;28;20045;-85
2024/01/31 10:18:54;;;;;;;8.98;1.55;;;;;;;8.29;100.00;101008.13;4956138;28;20037;-83
2024/01/31 10:21:21;;;;;;;8.60;1.27;;;;;;;8.32;100.00;101014.94;4944668;28;20106;-84
2024/01/31 10:24:00;;;;;;;12.38;1.35;;;;;;;8.37;100.00;101004.06;4929499;28;20476;-83
2024/01/31 10:26:29;;;;;;;10.63;1.42;;;;;;;8.25;100.00;100990.03;4954929;28;20515;-83
2024/01/31 10:28:57;;;;;;;8.80;1.23;;;;;;;8.27;100.00;101002.13;4971087;28;20038;-85
2024/01/31 10:31:23;;;;;;;8.15;1.35;;;;;;;8.26;100.00;100994.34;4953398;28;20027;-85
2024/01/31 10:33:49;;;;;;;5.38;0.90;;;;;;;8.29;100.00;100999.38;4923289;28;20034;-88
2024/01/31 10:36:17;;;;;;;7.00;1.50;;;;;;;8.30;100.00;100983.44;4937877;28;20062;-85
2024/01/31 10:38:46;;;;;;;8.35;1.15;;;;;;;8.36;100.00;100970.78;4945731;28;20085;-82
2024/01/31 10:41:15;;;;;;;10.25;1.48;;;;;;;8.34;100.00;100973.53;4960740;28;20504;-87
2024/01/31 10:43:43;;;;;;;8.82;1.92;;;;;;;8.37;100.00;100962.75;4963013;28;20031;-88
2024/01/31 10:46:08;;;;;;;10.38;1.75;;;;;;;8.36;100.00;100961.06;4928982;28;20051;-87
2024/01/31 10:48:35;;;;;;;6.10;1.50;;;;;;;8.40;100.00;100948.50;4957011;28;20051;-85
2024/01/31 10:51:06;;;;;;;9.25;1.48;;;;;;;8.46;100.00;100941.94;4950208;28;20660;-87
2024/01/31 10:53:33;;;;;;;12.55;2.28;;;;;;;8.48;100.00;100924.19;4944913;28;20049;-83
2024/01/31 10:56:05;;;;;;;7.72;1.50;;;;;;;8.55;100.00;100918.38;4945150;28;20042;-85
2024/01/31 10:58:35;;;;;;;8.18;2.63;;;;;;;8.61;100.00;100921.50;4956528;28;20552;-81
2024/01/31 11:01:04;;;;;;;8.60;1.33;;;;;;;8.71;100.00;100906.66;4933897;28;20034;-84
2024/01/31 11:03:30;;;;;;;10.85;1.63;;;;;;;8.71;100.00;100914.56;4940045;28;20133;-84
2024/01/31 11:05:56;;;;;;;7.10;1.60;;;;;;;8.73;100.00;100907.34;4946342;28;20069;-88
2024/01/31 11:08:30;;;;;;;12.57;3.42;;;;;;;8.85;100.00;100886.25;4948078;28;20144;-85
2024/01/31 11:10:59;;;;;;;7.78;1.70;;;;;;;8.83;100.00;100899.56;4962918;28;20123;-84
2024/01/31 11:13:24;;;;;;;7.45;1.20;;;;;;;8.87;100.00;100900.97;4979223;28;20035;-88
2024/01/31 11:15:50;;;;;;;15.95;3.33;;;;;;;8.93;100.00;100899.66;4962035;28;20038;-86
2024/01/31 11:18:17;;;;;;;12.70;5.38;;;;;;;8.95;100.00;100892.47;4961628;28;20041;-87
2024/01/31 11:20:49;;;;;;;18.08;9.80;;;;;;;9.03;100.00;100900.59;4961627;28;20038;-87
2024/01/31 11:23:17;;;;;;;18.27;9.02;;;;;;;9.05;100.00;100890.78;4955885;28;20072;-86
2024/01/31 11:25:44;;;;;;;20.33;8.43;;;;;;;9.08;100.00;100889.69;4962583;28;20429;-87
2024/01/31 11:28:15;;;;;;;24.95;10.50;;;;;;;9.14;100.00;100881.28;4949014;28;20555;-85
2024/01/31 11:30:41;;;;;;;15.65;8.50;;;;;;;9.14;100.00;100885.72;4929868;28;20425;-86
2024/01/31 11:33:08;;;;;;;28.40;12.60;;;;;;;9.22;100.00;100890.38;4979765;28;20045;-88
2024/01/31 11:35:35;;;;;;;14.38;7.57;;;;;;;9.28;100.00;100879.34;4943368;28;20041;-83
2024/01/31 11:38:01;;;;;;;31.52;20.00;;;;;;;9.29;100.00;100878.34;4935300;28;20034;-88
2024/01/31 11:40:30;;;;;;;17.75;12.18;;;;;;;9.34;100.00;100875.34;4940014;29;20071;-84
2024/01/31 11:43:04;;;;;;;19.23;8.47;;;;;;;9.41;100.00;100872.06;4962758;28;20669;-88
2024/01/31 11:45:30;;;;;;;9.50;3.92;;;;;;;9.36;100.00;100853.16;4917818;29;20047;-84
2024/01/31 11:47:57;;;;;;;16.15;5.43;;;;;;;9.36;100.00;100839.13;4951803;28;20067;-85
2024/01/31 11:50:25;;;;;;;6.72;4.03;;;;;;;9.36;100.00;100850.53;4925526;29;20445;-89
2024/01/31 11:52:52;;;;;;;9.90;2.28;;;;;;;9.39;100.00;100858.19;4945510;28;20050;-85
2024/01/31 11:55:22;;;;;;;8.48;2.22;;;;;;;9.47;100.00;100868.09;4905111;29;20126;-88
2024/01/31 11:57:57;;;;;;;12.98;4.80;;;;;;;9.47;100.00;100870.75;4940337;28;20113;-84
2024/01/31 12:00:23;;;;;;;10.80;3.17;;;;;;;9.46;100.00;100871.69;4953464;28;20043;-87
2024/01/31 12:02:49;;;;;;;14.82;6.30;;;;;;;9.49;100.00;100867.97;4952615;28;20043;-86
2024/01/31 12:05:15;;;;;;;7.75;2.60;;;;;;;9.54;100.00;100873.69;4937055;28;20092;-85
2024/01/31 12:07:41;;;;;;;9.38;3.10;;;;;;;9.54;100.00;100877.19;4935959;28;20039;-86
2024/01/31 12:10:08;;;;;;;9.60;1.67;;;;;;;9.57;100.00;100855.00;4923543;28;20046;-86
2024/01/31 12:12:41;;;;;;;7.22;3.03;;;;;;;9.61;100.00;100855.56;4922304;28;20100;-84
2024/01/31 12:15:15;;;;;;;9.38;2.88;;;;;;;9.63;100.00;100857.13;4921352;28;20098;-85
2024/01/31 12:17:42;;;;;;;8.10;3.00;;;;;;;9.64;100.00;100847.38;4940481;28;20481;-87
2024/01/31 12:20:10;;;;;;;11.30;4.70;;;;;;;9.65;100.00;100841.16;4939458;29;20039;-85
2024/01/31 12:22:38;;;;;;;17.13;5.90;;;;;;;9.71;100.00;100824.81;4937179;28;20035;-87
2024/01/31 12:25:08;;;;;;;6.40;1.92;;;;;;;9.73;100.00;100822.84;4926105;29;20512;-83
2024/01/31 12:27:37;;;;;;;7.55;2.63;;;;;;;9.69;100.00;100805.59;4936476;29;20046;-86
2024/01/31 12:30:04;;;;;;;12.32;2.47;;;;;;;9.65;100.00;100802.38;4952434;28;20093;-89
2024/01/31 12:32:31;;;;;;;7.63;2.60;;;;;;;9.65;100.00;100806.84;4949359;28;20374;-85
2024/01/31 12:34:57;;;;;;;22.58;13.82;;;;;;;9.67;100.00;100799.63;4920737;28;20035;-85
2024/01/31 12:37:23;;;;;;;19.73;8.50;;;;;;;9.65;100.00;100802.38;4938384;29;20034;-85
2024/01/31 12:39:49;;;;;;;15.15;10.10;;;;;;;9.65;100.00;100799.75;4953054;28;20039;-86
2024/01/31 12:42:14;;;;;;;20.50;11.07;;;;;;;9.67;100.00;100810.16;4920912;29;20047;-87
2024/01/31 12:44:40;;;;;;;17.33;8.90;;;;;;;9.70;100.00;100804.63;4958991;28;20050;-86
2024/01/31 12:47:06;;;;;;;11.40;4.70;;;;;;;9.78;100.00;100818.03;4923563;28;20038;-86
2024/01/31 12:49:33;;;;;;;10.43;4.07;;;;;;;9.87;100.00;100803.22;4954101;28;20492;-86
2024/01/31 12:52:05;;;;;;;14.75;3.50;;;;;;;9.99;100.00;100777.56;4977087;28;20035;-85
2024/01/31 12:54:31;;;;;;;8.25;2.92;;;;;;;10.04;100.00;100799.13;4941759;29;20035;-86
2024/01/31 12:56:57;;;;;;;9.75;2.88;;;;;;;10.10;100.00;100794.28;4953866;28;20065;-82
2024/01/31 12:59:24;;;;;;;10.63;2.63;;;;;;;10.13;100.00;100791.38;4961725;28;20069;-86
2024/01/31 13:01:55;;;;;;;8.65;1.67;;;;;;;10.22;100.00;100793.22;4927224;28;20046;-85
2024/01/31 13:04:21;;;;;;;8.05;1.75;;;;;;;10.18;100.00;100795.28;4941201;28;20709;-87
2024/01/31 13:06:48;;;;;;;15.10;2.35;;;;;;;10.24;100.00;100782.53;4955348;28;20039;-85
2024/01/31 13:09:14;;;;;;;10.55;2.67;;;;;;;10.20;100.00;100789.03;4939367;28;20284;-85